Time;durP1;ratioP1;P1;durP2;ratioP2;P2;SDS_P1;SDS_P2;PMS_P1;PMS_P2;Temp;Humidity;BMP_temperature;BMP_pressure;BME280_temperature;BME280_humidity;BME280_pressure;Samples;Min_cycle;Max_cycle;Signal;HPM_P1;HPM_P2
2022/02/17 00:00:31;;;;;;;1.40;1.00;;;13.70;99.90;;;;;;5078964;28;20824;-69
2022/02/17 00:02:57;;;;;;;1.30;0.93;;;13.70;99.90;;;;;;5083259;28;20429;-70
2022/02/17 00:05:23;;;;;;;1.30;0.90;;;13.80;99.90;;;;;;5078604;28;20191;-71
2022/02/17 00:07:50;;;;;;;1.20;0.90;;;13.80;99.90;;;;;;5076126;28;20213;-69
2022/02/17 00:10:17;;;;;;;1.23;1.00;;;13.80;99.90;;;;;;5078028;28;21111;-70
2022/02/17 00:12:43;;;;;;;1.37;1.00;;;13.80;99.90;;;;;;5078910;28;20433;-69
2022/02/17 00:15:09;;;;;;;1.63;1.47;;;13.80;99.90;;;;;;5077923;28;20821;-69
2022/02/17 00:17:35;;;;;;;1.13;0.90;;;13.80;99.90;;;;;;5079055;28;20508;-71
2022/02/17 00:20:01;;;;;;;1.63;1.10;;;13.80;99.90;;;;;;5079675;28;20480;-70
2022/02/17 00:22:26;;;;;;;1.30;1.00;;;13.70;99.90;;;;;;5078211;28;20437;-71
2022/02/17 00:24:52;;;;;;;1.30;1.00;;;13.70;99.90;;;;;;5080075;28;20320;-70
2022/02/17 00:27:18;;;;;;;1.23;1.03;;;13.60;99.90;;;;;;5078596;28;20204;-70
2022/02/17 00:29:44;;;;;;;1.50;1.20;;;13.60;99.90;;;;;;5077401;28;20968;-70
2022/02/17 00:32:10;;;;;;;1.40;1.27;;;13.60;99.90;;;;;;5078193;28;20425;-70
2022/02/17 00:34:36;;;;;;;1.20;1.00;;;13.70;99.90;;;;;;5076510;28;20554;-70
2022/02/17 00:37:03;;;;;;;1.37;0.97;;;13.70;99.90;;;;;;5062524;28;20209;-69
2022/02/17 00:39:30;;;;;;;1.40;1.00;;;13.80;99.90;;;;;;5076604;28;20251;-70
2022/02/17 00:41:56;;;;;;;1.43;1.00;;;13.80;99.90;;;;;;5076459;28;20515;-69
2022/02/17 00:44:22;;;;;;;1.37;1.10;;;13.80;99.90;;;;;;5077805;28;20516;-71
2022/02/17 00:46:48;;;;;;;1.20;0.80;;;13.80;99.90;;;;;;5078880;28;20231;-69
2022/02/17 00:49:14;;;;;;;1.83;1.30;;;13.80;99.90;;;;;;5076928;28;20186;-69
2022/02/17 00:51:45;;;;;;;1.40;0.90;;;13.90;99.90;;;;;;5075761;28;20461;-69
2022/02/17 00:54:13;;;;;;;1.20;0.90;;;13.80;99.90;;;;;;5076094;28;20444;-70
2022/02/17 00:56:38;;;;;;;1.63;1.07;;;13.80;99.90;;;;;;5074893;28;20434;-69
2022/02/17 00:59:04;;;;;;;1.30;0.97;;;13.90;99.90;;;;;;5077584;28;20594;-69
2022/02/17 01:01:29;;;;;;;1.20;0.90;;;14.00;99.90;;;;;;5077239;28;20206;-70
2022/02/17 01:03:55;;;;;;;1.47;1.03;;;14.00;99.90;;;;;;5059781;28;20191;-70
2022/02/17 01:06:21;;;;;;;1.30;0.90;;;14.00;99.90;;;;;;5078402;28;20191;-70
2022/02/17 01:08:47;;;;;;;1.30;1.00;;;14.00;99.90;;;;;;5080169;28;20183;-69
2022/02/17 01:11:12;;;;;;;2.67;1.10;;;14.00;99.90;;;;;;5075473;28;20560;-70
2022/02/17 01:13:38;;;;;;;1.97;1.10;;;14.00;99.90;;;;;;5077802;28;20200;-69
2022/02/17 01:16:04;;;;;;;1.17;0.80;;;14.10;99.90;;;;;;5076037;28;20190;-69
2022/02/17 01:18:30;;;;;;;1.20;0.90;;;14.00;99.90;;;;;;5080205;28;20271;-69
2022/02/17 01:20:55;;;;;;;1.40;0.90;;;14.10;99.90;;;;;;5073266;28;20513;-69
2022/02/17 01:23:21;;;;;;;1.67;1.00;;;14.10;99.90;;;;;;5075846;28;20179;-69
2022/02/17 01:25:46;;;;;;;1.20;0.90;;;14.10;99.90;;;;;;5074895;28;20187;-69
2022/02/17 01:28:12;;;;;;;1.20;0.90;;;14.10;99.90;;;;;;5078326;28;20645;-69
2022/02/17 01:30:38;;;;;;;1.30;0.90;;;14.00;99.90;;;;;;5075435;28;20217;-71
2022/02/17 01:33:04;;;;;;;1.73;0.90;;;14.00;99.90;;;;;;5073876;28;20561;-68
2022/02/17 01:35:30;;;;;;;1.60;1.00;;;14.00;99.90;;;;;;5075625;28;20433;-69
2022/02/17 01:37:56;;;;;;;1.20;1.00;;;14.00;99.90;;;;;;5075925;28;20925;-69
2022/02/17 01:40:22;;;;;;;1.20;0.90;;;14.00;99.90;;;;;;5077678;28;20718;-69
2022/02/17 01:42:47;;;;;;;1.43;1.10;;;14.10;99.90;;;;;;5077430;28;20680;-69
2022/02/17 01:45:14;;;;;;;1.30;0.90;;;14.10;99.90;;;;;;5074274;28;20187;-69
2022/02/17 01:47:46;;;;;;;1.30;0.90;;;14.10;99.90;;;;;;5076685;28;20191;-69
2022/02/17 01:50:12;;;;;;;1.70;0.90;;;14.10;99.90;;;;;;5077141;28;20542;-70
2022/02/17 01:52:38;;;;;;;1.20;0.90;;;14.10;99.90;;;;;;5076703;28;20523;-70
2022/02/17 01:55:04;;;;;;;1.20;0.80;;;14.10;99.90;;;;;;5073610;28;20441;-70
2022/02/17 01:57:31;;;;;;;1.20;0.90;;;14.10;99.90;;;;;;5075701;28;20372;-71
2022/02/17 01:59:57;;;;;;;1.20;0.90;;;14.10;99.90;;;;;;5074841;28;20472;-71
2022/02/17 02:02:23;;;;;;;1.13;0.90;;;14.10;99.90;;;;;;5076091;28;20454;-71
2022/02/17 02:04:49;;;;;;;1.20;0.90;;;14.10;99.90;;;;;;5076561;28;20437;-71
2022/02/17 02:07:15;;;;;;;2.67;0.90;;;14.10;99.90;;;;;;5077255;28;20193;-70
2022/02/17 02:09:41;;;;;;;4.90;0.90;;;14.10;99.90;;;;;;5078397;28;21019;-71
2022/02/17 02:12:08;;;;;;;1.40;0.97;;;14.10;99.90;;;;;;5076099;28;20199;-69
2022/02/17 02:14:34;;;;;;;1.20;0.87;;;14.10;99.90;;;;;;5076268;28;20236;-69
2022/02/17 02:17:00;;;;;;;1.10;0.80;;;14.10;99.90;;;;;;5075757;28;20433;-69
2022/02/17 02:19:26;;;;;;;1.40;0.93;;;14.10;99.90;;;;;;5076242;28;20469;-69
2022/02/17 02:21:51;;;;;;;1.20;0.80;;;14.10;99.90;;;;;;5074413;28;20528;-69
2022/02/17 02:24:17;;;;;;;1.20;0.90;;;14.10;99.90;;;;;;5076549;28;20182;-69
2022/02/17 02:26:42;;;;;;;1.40;1.00;;;14.10;99.90;;;;;;5072927;28;20197;-69
2022/02/17 02:29:08;;;;;;;1.20;0.87;;;14.10;99.90;;;;;;5074301;28;20197;-69
2022/02/17 02:31:34;;;;;;;1.20;0.80;;;14.20;99.90;;;;;;5074564;28;20229;-69
2022/02/17 02:33:59;;;;;;;1.20;0.80;;;14.20;99.90;;;;;;5076541;28;20186;-70
2022/02/17 02:36:25;;;;;;;1.20;0.90;;;14.20;99.90;;;;;;5075657;28;20334;-69
2022/02/17 02:38:52;;;;;;;1.13;0.80;;;14.20;99.90;;;;;;5074961;28;20241;-69
2022/02/17 02:41:18;;;;;;;2.37;1.00;;;14.20;99.90;;;;;;5076225;28;20465;-69
2022/02/17 02:43:44;;;;;;;1.20;0.80;;;14.20;99.90;;;;;;5074667;28;20437;-70
2022/02/17 02:46:09;;;;;;;1.20;0.80;;;14.20;99.90;;;;;;5074746;28;20421;-71
2022/02/17 02:48:35;;;;;;;1.33;0.90;;;14.20;99.90;;;;;;5074736;28;20190;-71
2022/02/17 02:51:01;;;;;;;1.17;0.80;;;14.20;99.90;;;;;;5077535;28;20207;-71
2022/02/17 02:53:27;;;;;;;1.10;0.80;;;14.20;99.90;;;;;;5074834;28;20548;-72
2022/02/17 02:55:52;;;;;;;1.20;0.80;;;14.20;99.90;;;;;;5077893;28;20456;-72
2022/02/17 02:58:19;;;;;;;1.17;0.80;;;14.20;99.90;;;;;;5076670;28;20226;-71
2022/02/17 03:00:47;;;;;;;1.20;0.90;;;14.30;99.90;;;;;;5059516;28;20272;-70
2022/02/17 03:03:14;;;;;;;1.20;0.80;;;14.30;99.90;;;;;;5075126;28;20813;-73
2022/02/17 03:05:43;;;;;;;1.20;0.87;;;14.30;99.90;;;;;;5059568;28;20957;-71
2022/02/17 03:08:09;;;;;;;1.30;1.00;;;14.30;99.90;;;;;;5076028;28;20918;-71
2022/02/17 03:10:35;;;;;;;1.30;1.00;;;14.30;99.90;;;;;;5078356;28;20521;-72
2022/02/17 03:13:00;;;;;;;1.13;0.80;;;14.40;99.90;;;;;;5075411;28;20243;-71
2022/02/17 03:15:27;;;;;;;1.43;1.10;;;14.40;99.90;;;;;;5062253;28;20549;-72
2022/02/17 03:17:53;;;;;;;2.60;0.80;;;14.40;99.90;;;;;;5057313;28;20199;-71
2022/02/17 03:20:20;;;;;;;1.20;0.80;;;14.40;99.90;;;;;;5074470;28;20537;-71
2022/02/17 03:22:45;;;;;;;1.17;0.80;;;14.40;99.90;;;;;;5075652;28;20442;-71
2022/02/17 03:25:15;;;;;;;1.40;0.90;;;14.40;99.90;;;;;;5073588;28;20523;-71
2022/02/17 03:27:41;;;;;;;1.20;0.80;;;14.40;99.90;;;;;;5071330;28;20215;-71
2022/02/17 03:30:09;;;;;;;1.20;0.80;;;14.40;99.90;;;;;;5076040;28;20520;-71
2022/02/17 03:32:36;;;;;;;1.20;0.90;;;14.40;99.90;;;;;;5074603;28;20440;-71
2022/02/17 03:35:03;;;;;;;1.93;1.27;;;14.40;99.90;;;;;;5073259;28;20441;-72
2022/02/17 03:37:29;;;;;;;1.40;0.80;;;14.40;99.90;;;;;;5074683;28;20432;-72
2022/02/17 03:39:55;;;;;;;1.20;0.80;;;14.40;99.90;;;;;;5074641;28;20877;-71
2022/02/17 03:42:21;;;;;;;1.17;0.80;;;14.40;99.90;;;;;;5075060;28;20650;-71
2022/02/17 03:44:46;;;;;;;1.10;0.80;;;14.40;99.90;;;;;;5075483;28;20245;-71
2022/02/17 03:47:13;;;;;;;1.90;1.00;;;14.30;99.90;;;;;;5052937;28;20442;-71
2022/02/17 03:49:38;;;;;;;1.17;0.83;;;14.20;99.90;;;;;;5074832;28;20206;-72
2022/02/17 03:52:07;;;;;;;1.13;0.80;;;14.20;99.90;;;;;;5076226;28;20439;-71
2022/02/17 03:54:33;;;;;;;1.30;0.90;;;14.10;99.90;;;;;;5072157;28;20189;-72
2022/02/17 03:56:58;;;;;;;1.10;0.80;;;14.20;99.90;;;;;;5073482;28;20444;-72
2022/02/17 03:59:24;;;;;;;1.20;0.80;;;14.10;99.90;;;;;;5074636;28;20472;-73
2022/02/17 04:01:50;;;;;;;1.30;0.90;;;14.20;99.90;;;;;;5075443;28;20346;-72
2022/02/17 04:04:16;;;;;;;1.50;0.90;;;14.20;99.90;;;;;;5072766;28;20195;-73
2022/02/17 04:06:42;;;;;;;1.17;0.80;;;14.20;99.90;;;;;;5079204;28;20182;-71
2022/02/17 04:09:08;;;;;;;1.20;0.80;;;14.10;99.90;;;;;;5076473;28;20465;-72
2022/02/17 04:11:34;;;;;;;1.10;0.80;;;14.10;99.90;;;;;;5074410;28;20896;-72
2022/02/17 04:14:00;;;;;;;1.20;0.80;;;14.00;99.90;;;;;;5075551;28;20427;-71
2022/02/17 04:16:31;;;;;;;1.20;0.80;;;14.00;99.90;;;;;;5058639;28;20190;-73
2022/02/17 04:18:57;;;;;;;1.17;0.80;;;14.00;99.90;;;;;;5072648;28;20478;-71
2022/02/17 04:21:23;;;;;;;1.20;0.87;;;14.10;99.90;;;;;;5076897;28;20914;-71
2022/02/17 04:23:50;;;;;;;1.20;0.80;;;14.10;99.90;;;;;;5075774;28;20528;-72
2022/02/17 04:26:18;;;;;;;1.20;0.90;;;14.10;99.90;;;;;;5068390;28;20223;-71
2022/02/17 04:28:45;;;;;;;1.50;0.90;;;14.10;99.90;;;;;;5075695;28;20823;-71
2022/02/17 04:31:11;;;;;;;1.20;0.80;;;14.00;99.90;;;;;;5077734;28;20455;-71
2022/02/17 04:33:38;;;;;;;1.20;0.80;;;14.10;99.90;;;;;;5078271;28;20416;-71
2022/02/17 04:36:04;;;;;;;1.20;0.80;;;14.00;99.90;;;;;;5078637;28;20434;-71
2022/02/17 04:38:30;;;;;;;1.20;0.90;;;14.10;99.90;;;;;;5077817;28;20429;-71
2022/02/17 04:43:42;;;;;;;1.20;0.83;;;13.90;99.90;;;;;;5075057;28;20947;-71
2022/02/17 04:46:07;;;;;;;1.20;0.90;;;13.80;99.90;;;;;;5077982;28;20437;-71
2022/02/17 04:48:34;;;;;;;2.40;1.00;;;13.80;99.90;;;;;;5079801;28;20444;-71
2022/02/17 04:50:59;;;;;;;1.20;1.00;;;13.80;99.90;;;;;;5074239;28;20760;-72
2022/02/17 04:53:25;;;;;;;1.10;0.80;;;13.70;99.90;;;;;;5078964;28;20444;-71
2022/02/17 04:55:51;;;;;;;1.50;0.87;;;13.60;99.90;;;;;;5077269;28;20179;-70
2022/02/17 04:58:17;;;;;;;1.23;0.90;;;13.50;99.90;;;;;;5078308;28;20296;-71
2022/02/17 05:00:44;;;;;;;1.60;1.00;;;13.40;99.90;;;;;;5075339;28;20230;-70
2022/02/17 05:03:11;;;;;;;3.10;1.20;;;13.40;99.90;;;;;;5075640;28;20266;-71
2022/02/17 05:05:37;;;;;;;4.27;1.50;;;13.40;99.90;;;;;;5080201;28;20456;-72
2022/02/17 05:08:03;;;;;;;2.37;1.00;;;13.40;99.90;;;;;;5076267;28;20432;-71
2022/02/17 05:10:28;;;;;;;3.10;1.37;;;13.40;99.90;;;;;;5078991;28;20444;-71
2022/02/17 05:12:54;;;;;;;3.20;1.60;;;13.40;99.90;;;;;;5078879;28;20206;-71
2022/02/17 05:15:20;;;;;;;3.43;1.37;;;13.40;99.90;;;;;;5075944;28;20178;-72
2022/02/17 05:17:46;;;;;;;3.83;1.70;;;13.40;99.90;;;;;;5078094;28;20433;-71
2022/02/17 05:20:11;;;;;;;4.43;1.40;;;13.50;99.90;;;;;;5077078;28;20240;-71
2022/02/17 05:22:42;;;;;;;6.10;2.37;;;13.40;99.90;;;;;;5061183;28;20182;-71
2022/02/17 05:25:10;;;;;;;8.53;1.20;;;13.40;99.90;;;;;;5083566;28;20467;-72
2022/02/17 05:27:36;;;;;;;3.97;2.27;;;13.40;99.90;;;;;;5075882;28;20428;-71
2022/02/17 05:30:02;;;;;;;5.70;1.60;;;13.30;99.90;;;;;;5076565;28;20711;-71
2022/02/17 05:32:28;;;;;;;4.40;1.50;;;13.30;99.90;;;;;;5075591;28;20524;-71
2022/02/17 05:34:54;;;;;;;5.37;2.00;;;13.30;99.90;;;;;;5076652;28;20425;-71
2022/02/17 05:37:19;;;;;;;6.37;2.13;;;13.30;99.90;;;;;;5073615;28;20197;-72
2022/02/17 05:39:45;;;;;;;9.40;2.23;;;13.30;99.90;;;;;;5077992;28;20244;-72
2022/02/17 05:42:10;;;;;;;8.37;1.60;;;13.30;99.90;;;;;;5077016;28;20193;-72
2022/02/17 05:44:36;;;;;;;5.73;1.80;;;13.30;99.90;;;;;;5077123;28;20253;-72
2022/02/17 05:47:02;;;;;;;3.80;2.53;;;13.30;99.90;;;;;;5056929;28;20710;-71
2022/02/17 05:49:28;;;;;;;6.33;3.03;;;13.20;99.90;;;;;;5076731;28;20464;-72
2022/02/17 05:51:53;;;;;;;4.00;1.60;;;13.20;99.90;;;;;;5078067;28;20469;-72
2022/02/17 05:54:19;;;;;;;13.17;3.50;;;13.20;99.90;;;;;;5075368;28;21054;-73
2022/02/17 05:56:45;;;;;;;10.20;2.10;;;13.30;99.90;;;;;;5073389;28;20182;-71
2022/02/17 05:59:10;;;;;;;3.00;1.80;;;13.20;99.90;;;;;;5074568;28;20259;-72
2022/02/17 06:01:36;;;;;;;5.93;2.03;;;13.10;99.90;;;;;;5076462;28;20267;-72
2022/02/17 06:04:02;;;;;;;6.03;2.07;;;13.10;99.90;;;;;;5076403;28;20179;-72
2022/02/17 06:06:27;;;;;;;6.43;2.80;;;13.10;99.90;;;;;;5078347;28;20175;-71
2022/02/17 06:08:53;;;;;;;8.30;3.50;;;13.00;99.90;;;;;;5075955;28;20927;-72
2022/02/17 06:11:18;;;;;;;8.80;2.30;;;13.00;99.90;;;;;;5074744;28;20200;-71
2022/02/17 06:13:44;;;;;;;5.60;1.70;;;13.00;99.90;;;;;;5075412;28;20206;-72
2022/02/17 06:16:09;;;;;;;10.23;2.10;;;13.00;99.90;;;;;;5074380;28;20198;-71
2022/02/17 06:18:35;;;;;;;10.73;1.90;;;13.00;99.90;;;;;;5061317;28;20212;-71
2022/02/17 06:21:01;;;;;;;7.30;2.97;;;13.00;99.90;;;;;;5074086;28;20289;-71
2022/02/17 06:23:26;;;;;;;5.60;2.10;;;13.00;99.90;;;;;;5074311;28;20326;-71
2022/02/17 06:25:53;;;;;;;5.00;2.27;;;12.90;99.90;;;;;;5077295;28;20713;-73
2022/02/17 06:28:19;;;;;;;11.20;2.47;;;12.90;99.90;;;;;;5076521;28;20175;-72
2022/02/17 06:30:45;;;;;;;5.27;2.10;;;12.90;99.90;;;;;;5075803;28;20476;-72
2022/02/17 06:33:11;;;;;;;5.20;2.50;;;12.90;99.90;;;;;;5074072;28;20903;-72
2022/02/17 06:35:38;;;;;;;8.13;2.17;;;12.90;99.90;;;;;;5070968;28;21089;-72
2022/02/17 06:38:05;;;;;;;7.03;2.67;;;12.90;99.90;;;;;;5072817;28;20481;-72
2022/02/17 06:40:32;;;;;;;4.53;2.37;;;12.90;99.90;;;;;;5074523;28;20850;-72
2022/02/17 06:43:09;;;;;;;7.17;2.67;;;12.90;99.90;;;;;;5071506;28;21681;-72
2022/02/17 06:45:36;;;;;;;10.73;2.53;;;12.90;99.90;;;;;;5072283;28;20432;-71
2022/02/17 06:48:03;;;;;;;8.60;2.50;;;12.80;99.90;;;;;;5076954;28;20413;-72
2022/02/17 06:50:28;;;;;;;9.57;2.70;;;12.90;99.90;;;;;;5072668;28;20515;-73
2022/02/17 06:52:54;;;;;;;7.30;2.50;;;12.90;99.90;;;;;;5057152;28;20887;-72
2022/02/17 06:55:20;;;;;;;9.13;2.70;;;12.90;99.90;;;;;;5073207;28;20240;-72
2022/02/17 06:57:49;;;;;;;12.63;3.27;;;12.90;99.90;;;;;;5075031;28;20185;-73
2022/02/17 07:00:15;;;;;;;9.53;2.70;;;12.90;99.90;;;;;;5072209;28;20475;-72
2022/02/17 07:02:47;;;;;;;9.57;2.90;;;12.90;99.90;;;;;;5070743;28;20535;-71
2022/02/17 07:05:13;;;;;;;6.50;2.40;;;12.80;99.90;;;;;;5071979;28;20432;-71
2022/02/17 07:07:39;;;;;;;6.37;2.57;;;12.80;99.90;;;;;;5072902;28;20915;-72
2022/02/17 07:10:07;;;;;;;25.23;3.30;;;12.80;99.90;;;;;;5072391;28;20206;-73
2022/02/17 07:12:32;;;;;;;10.20;2.60;;;12.80;99.90;;;;;;5074900;28;20267;-72
2022/02/17 07:14:58;;;;;;;12.83;3.90;;;12.70;99.90;;;;;;5071233;28;21193;-72
2022/02/17 07:17:24;;;;;;;6.97;2.30;;;12.70;99.90;;;;;;5073498;28;20185;-71
2022/02/17 07:19:50;;;;;;;5.63;2.27;;;12.70;99.90;;;;;;5074509;28;20423;-71
2022/02/17 07:22:16;;;;;;;13.17;2.77;;;12.70;99.90;;;;;;5073104;28;21300;-71
2022/02/17 07:24:42;;;;;;;6.30;1.53;;;12.70;99.90;;;;;;5075111;28;20426;-72
2022/02/17 07:27:09;;;;;;;9.90;2.87;;;12.70;99.90;;;;;;5073539;28;20259;-69
2022/02/17 07:29:36;;;;;;;7.53;2.50;;;12.80;99.90;;;;;;5075262;28;20437;-70
2022/02/17 07:32:05;;;;;;;5.63;2.27;;;12.80;99.90;;;;;;5067346;28;20432;-73
2022/02/17 07:34:31;;;;;;;6.27;2.53;;;12.80;99.90;;;;;;5074413;28;20429;-71
2022/02/17 07:36:56;;;;;;;9.60;3.20;;;12.80;99.90;;;;;;5075267;28;20482;-70
2022/02/17 07:39:23;;;;;;;10.47;2.20;;;12.80;99.90;;;;;;5075764;28;20209;-71
2022/02/17 07:41:48;;;;;;;17.57;2.33;;;12.80;99.90;;;;;;5072400;28;20186;-71
2022/02/17 07:44:14;;;;;;;6.40;2.67;;;12.70;99.90;;;;;;5076157;28;20429;-70
2022/02/17 07:46:40;;;;;;;6.90;2.20;;;12.70;99.90;;;;;;5056584;28;20179;-71
2022/02/17 07:49:05;;;;;;;4.80;1.97;;;12.70;99.90;;;;;;5072878;28;20190;-71
2022/02/17 07:51:32;;;;;;;10.60;3.10;;;12.70;99.90;;;;;;5075182;28;20198;-71
2022/02/17 07:53:58;;;;;;;10.43;3.20;;;12.70;99.90;;;;;;5075155;28;21354;-71
2022/02/17 07:56:23;;;;;;;8.13;2.60;;;12.70;99.90;;;;;;5079405;28;20443;-69
2022/02/17 07:58:49;;;;;;;7.60;2.57;;;12.60;99.90;;;;;;5058313;28;21031;-71
2022/02/17 08:01:15;;;;;;;8.90;2.27;;;12.60;99.90;;;;;;5078218;28;20199;-70
2022/02/17 08:03:41;;;;;;;8.17;2.83;;;12.70;99.90;;;;;;5073620;28;20269;-69
2022/02/17 08:06:07;;;;;;;10.80;2.70;;;12.70;99.90;;;;;;5073167;28;20516;-68
2022/02/17 08:08:33;;;;;;;8.47;2.80;;;12.70;99.90;;;;;;5068817;28;20175;-70
2022/02/17 08:10:59;;;;;;;6.20;2.30;;;12.60;99.90;;;;;;5073674;28;20598;-69
2022/02/17 08:13:25;;;;;;;7.27;2.27;;;12.60;99.90;;;;;;5071607;28;20443;-70
2022/02/17 08:15:52;;;;;;;8.33;2.90;;;12.70;99.90;;;;;;5073145;28;20198;-69
2022/02/17 08:18:18;;;;;;;13.60;3.53;;;12.60;99.90;;;;;;5074905;28;20201;-69
2022/02/17 08:20:45;;;;;;;8.67;2.57;;;12.70;99.90;;;;;;5073952;28;20475;-70
2022/02/17 08:23:11;;;;;;;7.03;3.03;;;12.70;99.90;;;;;;5073837;28;20175;-69
2022/02/17 08:25:37;;;;;;;10.57;2.90;;;12.70;99.90;;;;;;5070951;28;20432;-69
2022/02/17 08:28:03;;;;;;;9.80;2.87;;;12.80;99.90;;;;;;5073099;28;20505;-69
2022/02/17 08:30:29;;;;;;;7.27;2.43;;;12.70;99.90;;;;;;5071406;28;20211;-70
2022/02/17 08:32:56;;;;;;;10.33;3.23;;;12.70;99.90;;;;;;5071552;28;20886;-71
2022/02/17 08:35:22;;;;;;;8.77;2.50;;;12.80;99.90;;;;;;5074088;28;20932;-70
2022/02/17 08:37:47;;;;;;;7.47;2.60;;;12.90;99.90;;;;;;5075180;28;20437;-69
2022/02/17 08:40:13;;;;;;;9.97;3.87;;;12.90;99.90;;;;;;5070700;28;20635;-71
2022/02/17 08:42:40;;;;;;;12.20;5.00;;;12.90;99.90;;;;;;5060330;28;20183;-71
2022/02/17 08:45:07;;;;;;;10.87;3.37;;;12.90;99.90;;;;;;5072987;28;20474;-70
2022/02/17 08:47:33;;;;;;;10.00;3.03;;;12.90;99.90;;;;;;5060948;28;20490;-71
2022/02/17 08:49:58;;;;;;;11.57;3.30;;;12.80;99.90;;;;;;5074577;28;20464;-71
2022/02/17 08:52:24;;;;;;;13.43;2.60;;;12.80;99.90;;;;;;5072023;28;20440;-71
2022/02/17 08:54:50;;;;;;;13.73;3.17;;;12.90;99.90;;;;;;5073600;28;20743;-71
2022/02/17 08:57:17;;;;;;;11.20;2.80;;;12.90;99.90;;;;;;5066707;28;20190;-70
2022/02/17 08:59:43;;;;;;;13.87;3.13;;;12.80;99.90;;;;;;5065556;28;20210;-69
2022/02/17 09:02:09;;;;;;;11.37;3.10;;;12.80;99.90;;;;;;5066932;28;20441;-72
2022/02/17 09:04:34;;;;;;;16.43;4.63;;;12.70;99.90;;;;;;5071190;28;20221;-71
2022/02/17 09:07:00;;;;;;;11.27;3.37;;;12.70;99.90;;;;;;5067947;28;20201;-70
2022/02/17 09:09:27;;;;;;;11.20;3.87;;;12.70;99.90;;;;;;5071793;28;20195;-70
2022/02/17 09:11:53;;;;;;;12.40;4.10;;;12.60;99.90;;;;;;5055206;28;20459;-70
2022/02/17 09:14:19;;;;;;;21.57;5.40;;;12.50;99.90;;;;;;5074959;28;20444;-70
2022/02/17 09:16:45;;;;;;;19.03;5.07;;;12.60;99.90;;;;;;5053036;28;20468;-69
2022/02/17 09:19:14;;;;;;;14.53;4.70;;;12.50;99.90;;;;;;5072764;28;21002;-71
2022/02/17 09:21:41;;;;;;;19.90;3.83;;;12.50;99.90;;;;;;5073811;28;20567;-70
2022/02/17 09:24:07;;;;;;;20.03;4.43;;;12.50;99.90;;;;;;5070754;28;20460;-70
2022/02/17 09:26:33;;;;;;;9.17;2.83;;;12.50;99.90;;;;;;5070970;28;20475;-69
2022/02/17 09:29:04;;;;;;;19.33;5.47;;;12.50;99.90;;;;;;5073953;28;20232;-69
2022/02/17 09:31:34;;;;;;;9.50;3.30;;;12.50;99.90;;;;;;5070338;28;20889;-70
2022/02/17 09:34:00;;;;;;;15.37;3.07;;;12.50;99.90;;;;;;5070518;28;20459;-69
2022/02/17 09:36:26;;;;;;;11.73;4.70;;;12.50;99.90;;;;;;5057534;28;20961;-69
2022/02/17 09:38:56;;;;;;;21.50;3.80;;;12.50;99.90;;;;;;5071054;28;20220;-69
2022/02/17 09:41:22;;;;;;;16.60;5.10;;;12.60;99.90;;;;;;5072730;28;21056;-69
2022/02/17 09:43:52;;;;;;;16.33;3.80;;;12.50;99.90;;;;;;5071255;28;20761;-71
2022/02/17 09:46:22;;;;;;;14.87;4.53;;;12.50;99.90;;;;;;5070447;28;20438;-69
2022/02/17 09:48:55;;;;;;;14.90;4.67;;;12.60;99.90;;;;;;5058238;28;20543;-71
2022/02/17 09:51:25;;;;;;;12.33;4.20;;;12.60;99.90;;;;;;5069960;28;21234;-72
2022/02/17 09:53:54;;;;;;;15.33;4.20;;;12.60;99.90;;;;;;5071149;28;20536;-72
2022/02/17 09:56:25;;;;;;;11.73;3.60;;;12.50;99.90;;;;;;5069212;28;20432;-71
2022/02/17 09:58:52;;;;;;;12.17;3.37;;;12.60;99.90;;;;;;5073653;28;20433;-70
2022/02/17 10:01:36;;;;;;;17.67;3.63;;;12.50;99.90;;;;;;5067856;28;23712;-72
2022/02/17 10:04:22;;;;;;;11.93;3.80;;;12.40;99.90;;;;;;5070425;28;20531;-71
2022/02/17 10:06:56;;;;;;;23.10;4.53;;;12.50;99.90;;;;;;5075002;28;20436;-71
2022/02/17 10:09:34;;;;;;;14.07;4.13;;;12.40;99.90;;;;;;5071553;28;20432;-73
2022/02/17 10:12:04;;;;;;;9.70;3.30;;;12.50;99.90;;;;;;5055063;28;20476;-75
2022/02/17 10:14:36;;;;;;;11.40;4.13;;;12.50;99.90;;;;;;5070285;28;20892;-73
2022/02/17 10:17:08;;;;;;;15.43;3.40;;;12.50;99.90;;;;;;5058199;28;20447;-73
2022/02/17 10:19:40;;;;;;;12.60;2.97;;;12.50;99.90;;;;;;5057584;28;20480;-75
2022/02/17 10:22:23;;;;;;;14.93;3.47;;;12.50;99.90;;;;;;5072486;28;20821;-73
2022/02/17 10:24:50;;;;;;;12.50;3.20;;;12.60;99.90;;;;;;5067939;28;20432;-72
2022/02/17 10:27:24;;;;;;;13.43;3.40;;;12.50;99.90;;;;;;5072227;28;20532;-73
2022/02/17 10:30:09;;;;;;;13.90;3.90;;;12.60;99.90;;;;;;5063659;28;20496;-75
2022/02/17 10:32:56;;;;;;;10.80;3.40;;;12.70;99.90;;;;;;5074272;28;20440;-77
2022/02/17 10:35:26;;;;;;;15.63;4.50;;;12.70;99.90;;;;;;5071354;28;20728;-76
2022/02/17 10:37:57;;;;;;;9.37;3.60;;;12.80;99.90;;;;;;5071056;28;20443;-74
2022/02/17 10:40:29;;;;;;;11.23;3.50;;;12.80;99.90;;;;;;5069980;28;20515;-75
2022/02/17 10:42:58;;;;;;;12.70;3.43;;;12.80;99.90;;;;;;5039242;28;20440;-75
2022/02/17 10:45:27;;;;;;;8.60;3.33;;;12.80;99.90;;;;;;5071287;28;20449;-73
2022/02/17 10:47:52;;;;;;;12.27;3.80;;;12.80;99.90;;;;;;5070114;28;21304;-72
2022/02/17 10:50:19;;;;;;;14.67;3.60;;;12.80;99.90;;;;;;5068115;28;20467;-73
2022/02/17 10:52:48;;;;;;;15.80;4.30;;;12.80;99.90;;;;;;5071566;28;20667;-75
2022/02/17 10:55:22;;;;;;;11.03;3.30;;;12.80;99.90;;;;;;5068270;28;20461;-74
2022/02/17 10:57:49;;;;;;;7.27;3.20;;;12.90;99.90;;;;;;5074054;28;20461;-70
2022/02/17 11:00:20;;;;;;;15.53;3.70;;;12.90;99.90;;;;;;5055064;28;20882;-72
2022/02/17 11:02:47;;;;;;;9.90;2.97;;;12.80;99.90;;;;;;5067192;28;20468;-71
2022/02/17 11:05:14;;;;;;;17.97;3.93;;;12.70;99.90;;;;;;5072630;28;20421;-71
2022/02/17 11:07:41;;;;;;;12.43;5.27;;;12.80;99.90;;;;;;5069568;28;20527;-68
2022/02/17 11:10:08;;;;;;;21.93;4.37;;;12.70;99.90;;;;;;5056462;28;20465;-69
2022/02/17 11:12:36;;;;;;;10.63;4.37;;;12.70;99.90;;;;;;5071705;28;20797;-69
2022/02/17 11:15:05;;;;;;;16.67;4.10;;;12.70;99.90;;;;;;5051085;28;20642;-70
2022/02/17 11:17:37;;;;;;;11.00;3.40;;;12.70;99.90;;;;;;5070623;28;20439;-69
2022/02/17 11:20:20;;;;;;;24.73;4.53;;;12.80;99.90;;;;;;5069754;28;20472;-70
2022/02/17 11:22:50;;;;;;;15.63;4.13;;;12.80;99.90;;;;;;5072577;28;20460;-67
2022/02/17 11:25:42;;;;;;;15.33;6.17;;;12.80;99.90;;;;;;5068100;28;20436;-69
2022/02/17 11:28:16;;;;;;;16.43;5.03;;;12.90;99.90;;;;;;5044536;28;20428;-68
2022/02/17 11:30:44;;;;;;;16.53;3.80;;;12.90;99.90;;;;;;5074896;28;20457;-70
2022/02/17 11:33:27;;;;;;;17.97;4.50;;;13.00;99.90;;;;;;5074069;28;20717;-72
2022/02/17 11:35:53;;;;;;;28.10;5.30;;;13.00;99.90;;;;;;5071960;28;20586;-72
2022/02/17 11:38:33;;;;;;;17.43;4.20;;;13.00;99.90;;;;;;5070853;28;20441;-72
2022/02/17 11:41:15;;;;;;;16.20;3.57;;;13.00;99.90;;;;;;5058516;28;20473;-70
2022/02/17 11:43:46;;;;;;;15.93;4.07;;;12.90;99.90;;;;;;5075853;28;20444;-71
2022/02/17 11:46:16;;;;;;;14.37;5.47;;;12.90;99.90;;;;;;5072795;28;20752;-70
2022/02/17 11:48:44;;;;;;;11.20;3.03;;;12.80;99.90;;;;;;5080065;28;20429;-71
2022/02/17 11:51:24;;;;;;;16.77;4.03;;;12.80;99.90;;;;;;5074133;28;20999;-70
2022/02/17 11:53:51;;;;;;;21.60;5.13;;;12.80;99.90;;;;;;5077502;28;20948;-68
2022/02/17 11:56:16;;;;;;;16.50;4.90;;;12.80;99.90;;;;;;5064174;28;20810;-68
2022/02/17 11:58:49;;;;;;;11.80;3.40;;;12.80;99.90;;;;;;5075133;28;20429;-67
2022/02/17 12:01:33;;;;;;;10.20;3.80;;;12.80;99.90;;;;;;5076181;28;20216;-68
2022/02/17 12:04:19;;;;;;;13.83;3.97;;;12.90;99.90;;;;;;5078017;28;20431;-67
2022/02/17 12:06:49;;;;;;;12.47;4.03;;;12.80;99.90;;;;;;5077710;28;20842;-68
2022/02/17 12:09:30;;;;;;;14.07;3.83;;;12.90;99.90;;;;;;5079449;28;20499;-68
2022/02/17 12:11:56;;;;;;;18.30;4.67;;;12.90;99.90;;;;;;5077715;28;20436;-68
2022/02/17 12:14:22;;;;;;;13.03;3.27;;;12.80;99.90;;;;;;5075405;28;20428;-67
2022/02/17 12:16:52;;;;;;;7.33;2.90;;;12.80;99.90;;;;;;5077172;28;20178;-67
2022/02/17 12:19:19;;;;;;;10.33;3.10;;;12.90;99.90;;;;;;5076630;28;20454;-67
2022/02/17 12:21:47;;;;;;;20.40;3.90;;;12.90;99.90;;;;;;5073796;28;20445;-68
2022/02/17 12:24:14;;;;;;;12.83;3.50;;;12.90;99.90;;;;;;5082557;28;20478;-68
2022/02/17 12:26:45;;;;;;;10.70;4.50;;;12.90;99.90;;;;;;5077099;28;20433;-68
2022/02/17 12:29:33;;;;;;;14.63;4.50;;;12.80;99.90;;;;;;5079025;28;20843;-68
2022/02/17 12:32:00;;;;;;;15.83;3.87;;;12.80;99.90;;;;;;5075902;28;20527;-68
2022/02/17 12:34:27;;;;;;;11.53;3.90;;;12.80;99.90;;;;;;5075633;28;20429;-68
2022/02/17 12:36:53;;;;;;;25.83;3.80;;;12.70;99.90;;;;;;5076235;28;20455;-68
2022/02/17 12:39:20;;;;;;;23.83;5.10;;;12.80;99.90;;;;;;5077408;28;20803;-68
2022/02/17 12:42:03;;;;;;;26.70;6.00;;;12.70;99.90;;;;;;5076437;28;20461;-69
2022/02/17 12:44:37;;;;;;;7.90;3.83;;;12.70;99.90;;;;;;5072655;28;20765;-68
2022/02/17 12:47:04;;;;;;;9.63;3.13;;;12.60;99.90;;;;;;5074756;28;21059;-68